sensor_id;sensor_type;location;lat;lon;timestamp;pressure;altitude;pressure_sealevel;temperature;humidity
62600;BME280;48671;48.922;2.346;2023-05-25T00:00:12;102052.16;;;18.22;45.45
62600;BME280;48671;48.922;2.346;2023-05-25T00:02:39;102066.06;;;18.24;45.43
62600;BME280;48671;48.922;2.346;2023-05-25T00:05:07;102058.03;;;18.27;45.43
62600;BME280;48671;48.922;2.346;2023-05-25T00:07:33;102048.03;;;18.16;45.46
62600;BME280;48671;48.922;2.346;2023-05-25T00:09:58;102047.03;;;18.19;45.85
62600;BME280;48671;48.922;2.346;2023-05-25T00:12:24;102043.91;;;18.11;45.79
62600;BME280;48671;48.922;2.346;2023-05-25T00:14:49;102043.44;;;18.02;45.82
62600;BME280;48671;48.922;2.346;2023-05-25T00:17:15;102045.22;;;18.02;45.74
62600;BME280;48671;48.922;2.346;2023-05-25T00:19:42;102049.06;;;17.95;45.98
62600;BME280;48671;48.922;2.346;2023-05-25T00:22:08;102047.59;;;17.89;46.33
62600;BME280;48671;48.922;2.346;2023-05-25T00:24:34;102037.41;;;17.82;45.99
62600;BME280;48671;48.922;2.346;2023-05-25T00:27:00;102053.06;;;17.85;46.76
62600;BME280;48671;48.922;2.346;2023-05-25T00:29:26;102053.00;;;17.86;46.71
62600;BME280;48671;48.922;2.346;2023-05-25T00:31:52;102047.88;;;17.83;47.16
62600;BME280;48671;48.922;2.346;2023-05-25T00:34:18;102048.38;;;17.72;47.50
62600;BME280;48671;48.922;2.346;2023-05-25T00:36:43;102051.28;;;17.66;48.31
62600;BME280;48671;48.922;2.346;2023-05-25T00:39:15;102040.19;;;17.41;48.26
62600;BME280;48671;48.922;2.346;2023-05-25T00:41:44;102054.28;;;17.40;48.70
62600;BME280;48671;48.922;2.346;2023-05-25T00:44:11;102050.56;;;17.25;49.04
62600;BME280;48671;48.922;2.346;2023-05-25T00:46:43;102048.47;;;17.13;49.74
62600;BME280;48671;48.922;2.346;2023-05-25T00:49:12;102050.41;;;17.09;49.74
62600;BME280;48671;48.922;2.346;2023-05-25T00:51:39;102055.88;;;17.04;49.58
62600;BME280;48671;48.922;2.346;2023-05-25T00:54:05;102047.53;;;16.95;50.39
62600;BME280;48671;48.922;2.346;2023-05-25T00:56:32;102041.13;;;16.81;50.38
62600;BME280;48671;48.922;2.346;2023-05-25T00:59:02;102036.16;;;16.74;50.80
62600;BME280;48671;48.922;2.346;2023-05-25T01:01:30;102049.38;;;16.72;51.25
62600;BME280;48671;48.922;2.346;2023-05-25T01:03:58;102040.81;;;16.67;51.16
62600;BME280;48671;48.922;2.346;2023-05-25T01:06:28;102054.97;;;16.65;51.55
62600;BME280;48671;48.922;2.346;2023-05-25T01:09:01;102051.78;;;16.56;51.86
62600;BME280;48671;48.922;2.346;2023-05-25T01:11:32;102052.03;;;16.50;51.31
62600;BME280;48671;48.922;2.346;2023-05-25T01:13:59;102042.84;;;16.40;52.12
62600;BME280;48671;48.922;2.346;2023-05-25T01:16:25;102035.22;;;16.34;51.97
62600;BME280;48671;48.922;2.346;2023-05-25T01:18:51;102043.19;;;16.32;51.92
62600;BME280;48671;48.922;2.346;2023-05-25T01:24:08;102044.28;;;16.27;51.88
62600;BME280;48671;48.922;2.346;2023-05-25T01:26:43;102042.72;;;16.23;52.23
62600;BME280;48671;48.922;2.346;2023-05-25T01:29:11;102038.75;;;16.12;52.05
62600;BME280;48671;48.922;2.346;2023-05-25T01:31:38;102048.25;;;16.15;51.56
62600;BME280;48671;48.922;2.346;2023-05-25T01:34:04;102050.34;;;16.07;52.06
62600;BME280;48671;48.922;2.346;2023-05-25T01:36:29;102034.84;;;16.01;51.77
62600;BME280;48671;48.922;2.346;2023-05-25T01:38:56;102054.06;;;16.01;52.48
62600;BME280;48671;48.922;2.346;2023-05-25T01:41:22;102047.97;;;16.01;52.41
62600;BME280;48671;48.922;2.346;2023-05-25T01:43:47;102058.41;;;16.02;52.41
62600;BME280;48671;48.922;2.346;2023-05-25T01:46:20;102054.78;;;16.05;52.72
62600;BME280;48671;48.922;2.346;2023-05-25T01:51:24;102049.06;;;15.95;52.52
62600;BME280;48671;48.922;2.346;2023-05-25T01:54:02;102062.06;;;15.98;52.79
62600;BME280;48671;48.922;2.346;2023-05-25T01:56:31;102051.19;;;15.85;52.49
62600;BME280;48671;48.922;2.346;2023-05-25T01:59:00;102067.16;;;15.79;52.23
62600;BME280;48671;48.922;2.346;2023-05-25T02:01:27;102059.44;;;15.76;52.08
62600;BME280;48671;48.922;2.346;2023-05-25T02:03:53;102061.38;;;15.71;51.87
62600;BME280;48671;48.922;2.346;2023-05-25T02:06:19;102061.59;;;15.65;52.67
62600;BME280;48671;48.922;2.346;2023-05-25T02:08:44;102057.25;;;15.64;52.92
62600;BME280;48671;48.922;2.346;2023-05-25T02:11:12;102072.81;;;15.70;52.35
62600;BME280;48671;48.922;2.346;2023-05-25T02:13:37;102065.06;;;15.65;52.64
62600;BME280;48671;48.922;2.346;2023-05-25T02:16:02;102072.91;;;15.67;52.67
62600;BME280;48671;48.922;2.346;2023-05-25T02:18:28;102071.16;;;15.66;52.26
62600;BME280;48671;48.922;2.346;2023-05-25T02:20:53;102069.56;;;15.62;51.89
62600;BME280;48671;48.922;2.346;2023-05-25T02:23:18;102078.38;;;15.61;52.52
62600;BME280;48671;48.922;2.346;2023-05-25T02:25:44;102066.22;;;15.58;52.43
62600;BME280;48671;48.922;2.346;2023-05-25T02:28:10;102078.38;;;15.61;51.88
62600;BME280;48671;48.922;2.346;2023-05-25T02:30:35;102074.09;;;15.58;52.45
62600;BME280;48671;48.922;2.346;2023-05-25T02:33:00;102078.47;;;15.58;52.72
62600;BME280;48671;48.922;2.346;2023-05-25T02:35:26;102084.91;;;15.49;52.76
62600;BME280;48671;48.922;2.346;2023-05-25T02:37:51;102078.41;;;15.36;52.52
62600;BME280;48671;48.922;2.346;2023-05-25T02:40:17;102075.78;;;15.36;52.90
62600;BME280;48671;48.922;2.346;2023-05-25T02:42:42;102092.44;;;15.35;52.84
62600;BME280;48671;48.922;2.346;2023-05-25T02:45:09;102087.44;;;15.29;52.61
62600;BME280;48671;48.922;2.346;2023-05-25T02:47:37;102084.97;;;15.24;52.86
62600;BME280;48671;48.922;2.346;2023-05-25T02:50:03;102091.19;;;15.21;53.00
62600;BME280;48671;48.922;2.346;2023-05-25T02:52:29;102093.63;;;15.26;52.82
62600;BME280;48671;48.922;2.346;2023-05-25T02:54:55;102097.28;;;15.22;52.86
62600;BME280;48671;48.922;2.346;2023-05-25T02:57:21;102094.72;;;15.20;53.08
62600;BME280;48671;48.922;2.346;2023-05-25T02:59:47;102095.69;;;15.18;52.62
62600;BME280;48671;48.922;2.346;2023-05-25T03:02:13;102088.97;;;15.11;52.84
62600;BME280;48671;48.922;2.346;2023-05-25T03:04:38;102094.25;;;15.09;52.83
62600;BME280;48671;48.922;2.346;2023-05-25T03:07:05;102102.00;;;15.12;53.21
62600;BME280;48671;48.922;2.346;2023-05-25T03:09:30;102095.19;;;15.07;53.09
62600;BME280;48671;48.922;2.346;2023-05-25T03:11:55;102094.34;;;15.06;53.70
62600;BME280;48671;48.922;2.346;2023-05-25T03:14:21;102102.28;;;15.05;53.10
62600;BME280;48671;48.922;2.346;2023-05-25T03:16:46;102105.91;;;15.01;54.06
62600;BME280;48671;48.922;2.346;2023-05-25T03:19:12;102107.03;;;14.93;53.35
62600;BME280;48671;48.922;2.346;2023-05-25T03:21:37;102101.22;;;14.85;53.55
62600;BME280;48671;48.922;2.346;2023-05-25T03:24:03;102107.22;;;14.87;53.75
62600;BME280;48671;48.922;2.346;2023-05-25T03:26:28;102111.69;;;14.85;54.15
62600;BME280;48671;48.922;2.346;2023-05-25T03:28:54;102108.31;;;14.82;53.75
62600;BME280;48671;48.922;2.346;2023-05-25T03:31:20;102114.44;;;14.81;53.64
62600;BME280;48671;48.922;2.346;2023-05-25T03:33:45;102111.91;;;14.79;53.92
62600;BME280;48671;48.922;2.346;2023-05-25T03:36:11;102122.22;;;14.84;53.80
62600;BME280;48671;48.922;2.346;2023-05-25T03:38:38;102120.50;;;14.83;54.24
62600;BME280;48671;48.922;2.346;2023-05-25T03:41:03;102124.25;;;14.75;54.22
62600;BME280;48671;48.922;2.346;2023-05-25T03:43:29;102124.28;;;14.74;54.10
62600;BME280;48671;48.922;2.346;2023-05-25T03:45:55;102131.50;;;14.67;54.21
62600;BME280;48671;48.922;2.346;2023-05-25T03:48:20;102138.41;;;14.70;54.27
62600;BME280;48671;48.922;2.346;2023-05-25T03:50:45;102126.34;;;14.64;54.25
62600;BME280;48671;48.922;2.346;2023-05-25T03:53:11;102126.34;;;14.64;54.37
62600;BME280;48671;48.922;2.346;2023-05-25T03:55:36;102133.53;;;14.59;54.48
62600;BME280;48671;48.922;2.346;2023-05-25T03:58:01;102127.38;;;14.60;54.35
62600;BME280;48671;48.922;2.346;2023-05-25T04:00:27;102136.16;;;14.59;53.98
62600;BME280;48671;48.922;2.346;2023-05-25T04:02:52;102134.47;;;14.57;54.62
62600;BME280;48671;48.922;2.346;2023-05-25T04:05:17;102139.78;;;14.55;55.05
62600;BME280;48671;48.922;2.346;2023-05-25T04:07:43;102132.06;;;14.50;54.81
62600;BME280;48671;48.922;2.346;2023-05-25T04:10:08;102132.13;;;14.47;54.53
62600;BME280;48671;48.922;2.346;2023-05-25T04:12:34;102133.94;;;14.45;54.60
62600;BME280;48671;48.922;2.346;2023-05-25T04:15:00;102135.84;;;14.40;55.15
62600;BME280;48671;48.922;2.346;2023-05-25T04:17:28;102129.78;;;14.38;54.70
62600;BME280;48671;48.922;2.346;2023-05-25T04:19:53;102129.00;;;14.36;54.83
62600;BME280;48671;48.922;2.346;2023-05-25T04:22:18;102136.00;;;14.36;55.32
62600;BME280;48671;48.922;2.346;2023-05-25T04:24:44;102134.25;;;14.36;55.26
62600;BME280;48671;48.922;2.346;2023-05-25T04:27:10;102131.56;;;14.38;55.15
62600;BME280;48671;48.922;2.346;2023-05-25T04:29:35;102128.09;;;14.37;54.94
62600;BME280;48671;48.922;2.346;2023-05-25T04:32:01;102128.19;;;14.34;54.94
62600;BME280;48671;48.922;2.346;2023-05-25T04:34:27;102127.50;;;14.29;55.42
62600;BME280;48671;48.922;2.346;2023-05-25T04:36:53;102144.94;;;14.28;55.27
62600;BME280;48671;48.922;2.346;2023-05-25T04:39:19;102138.84;;;14.28;55.33
62600;BME280;48671;48.922;2.346;2023-05-25T04:41:45;102153.59;;;14.31;55.48
62600;BME280;48671;48.922;2.346;2023-05-25T04:44:10;102144.84;;;14.32;55.39
62600;BME280;48671;48.922;2.346;2023-05-25T04:46:37;102156.16;;;14.32;55.54
62600;BME280;48671;48.922;2.346;2023-05-25T04:49:03;102162.22;;;14.34;55.42
62600;BME280;48671;48.922;2.346;2023-05-25T04:51:29;102144.31;;;14.20;55.33
62600;BME280;48671;48.922;2.346;2023-05-25T04:53:56;102169.31;;;14.31;55.47
62600;BME280;48671;48.922;2.346;2023-05-25T04:56:23;102163.13;;;14.33;55.66
62600;BME280;48671;48.922;2.346;2023-05-25T04:58:50;102175.84;;;14.45;55.68
62600;BME280;48671;48.922;2.346;2023-05-25T05:01:16;102174.81;;;14.51;55.38
62600;BME280;48671;48.922;2.346;2023-05-25T05:03:41;102165.06;;;14.56;55.04
62600;BME280;48671;48.922;2.346;2023-05-25T05:06:06;102147.63;;;14.55;55.13
62600;BME280;48671;48.922;2.346;2023-05-25T05:08:32;102158.31;;;14.47;55.05
62600;BME280;48671;48.922;2.346;2023-05-25T05:10:57;102154.91;;;14.45;55.66
62600;BME280;48671;48.922;2.346;2023-05-25T05:13:23;102142.66;;;14.46;55.15
62600;BME280;48671;48.922;2.346;2023-05-25T05:15:51;102156.63;;;14.45;54.99
62600;BME280;48671;48.922;2.346;2023-05-25T05:18:18;102144.44;;;14.44;55.08
62600;BME280;48671;48.922;2.346;2023-05-25T05:20:43;102159.84;;;14.55;54.52
62600;BME280;48671;48.922;2.346;2023-05-25T05:23:09;102166.94;;;14.51;55.44
62600;BME280;48671;48.922;2.346;2023-05-25T05:25:35;102193.97;;;14.53;55.78
62600;BME280;48671;48.922;2.346;2023-05-25T05:28:02;102184.19;;;14.58;55.24
62600;BME280;48671;48.922;2.346;2023-05-25T05:30:27;102171.13;;;14.57;55.06
62600;BME280;48671;48.922;2.346;2023-05-25T05:32:53;102194.06;;;14.77;55.17
62600;BME280;48671;48.922;2.346;2023-05-25T05:35:18;102187.81;;;14.81;55.16
62600;BME280;48671;48.922;2.346;2023-05-25T05:37:43;102190.34;;;14.84;55.08
62600;BME280;48671;48.922;2.346;2023-05-25T05:40:10;102209.31;;;14.92;54.72
62600;BME280;48671;48.922;2.346;2023-05-25T05:42:35;102182.56;;;14.81;54.77
62600;BME280;48671;48.922;2.346;2023-05-25T05:45:01;102202.31;;;14.91;54.38
62600;BME280;48671;48.922;2.346;2023-05-25T05:47:26;102202.44;;;14.88;54.92
62600;BME280;48671;48.922;2.346;2023-05-25T05:49:52;102195.69;;;14.81;54.92
62600;BME280;48671;48.922;2.346;2023-05-25T05:52:17;102189.56;;;14.82;54.36
62600;BME280;48671;48.922;2.346;2023-05-25T05:54:42;102190.25;;;14.87;54.54
62600;BME280;48671;48.922;2.346;2023-05-25T05:57:08;102190.69;;;14.99;54.61
62600;BME280;48671;48.922;2.346;2023-05-25T05:59:33;102210.19;;;15.17;54.07
62600;BME280;48671;48.922;2.346;2023-05-25T06:01:58;102202.38;;;15.16;54.21
62600;BME280;48671;48.922;2.346;2023-05-25T06:04:24;102188.00;;;15.28;54.11
62600;BME280;48671;48.922;2.346;2023-05-25T06:06:52;102197.28;;;15.36;53.98
62600;BME280;48671;48.922;2.346;2023-05-25T06:09:18;102205.66;;;15.48;53.39
62600;BME280;48671;48.922;2.346;2023-05-25T06:11:43;102203.06;;;15.46;53.19
62600;BME280;48671;48.922;2.346;2023-05-25T06:14:08;102207.19;;;15.53;53.61
62600;BME280;48671;48.922;2.346;2023-05-25T06:16:35;102218.25;;;15.61;53.42
62600;BME280;48671;48.922;2.346;2023-05-25T06:19:01;102211.53;;;15.54;53.28
62600;BME280;48671;48.922;2.346;2023-05-25T06:21:26;102225.31;;;15.59;53.00
62600;BME280;48671;48.922;2.346;2023-05-25T06:23:52;102223.50;;;15.61;52.84
62600;BME280;48671;48.922;2.346;2023-05-25T06:26:17;102220.81;;;15.63;52.33
62600;BME280;48671;48.922;2.346;2023-05-25T06:28:42;102214.81;;;15.59;52.88
62600;BME280;48671;48.922;2.346;2023-05-25T06:31:08;102219.84;;;15.67;52.74
62600;BME280;48671;48.922;2.346;2023-05-25T06:33:33;102228.34;;;15.74;52.43
62600;BME280;48671;48.922;2.346;2023-05-25T06:35:58;102228.19;;;15.78;53.05
62600;BME280;48671;48.922;2.346;2023-05-25T06:38:27;102214.84;;;15.84;52.18
62600;BME280;48671;48.922;2.346;2023-05-25T06:40:52;102223.97;;;15.98;52.12
62600;BME280;48671;48.922;2.346;2023-05-25T06:43:18;102218.56;;;16.02;52.03
62600;BME280;48671;48.922;2.346;2023-05-25T06:45:43;102232.00;;;16.17;51.74
62600;BME280;48671;48.922;2.346;2023-05-25T06:48:09;102219.97;;;16.11;51.64
62600;BME280;48671;48.922;2.346;2023-05-25T06:50:34;102233.50;;;16.24;51.38
62600;BME280;48671;48.922;2.346;2023-05-25T06:53:00;102226.47;;;16.24;51.08
62600;BME280;48671;48.922;2.346;2023-05-25T06:55:25;102233.25;;;16.30;50.88
62600;BME280;48671;48.922;2.346;2023-05-25T06:57:50;102236.44;;;16.38;50.75
62600;BME280;48671;48.922;2.346;2023-05-25T07:00:16;102235.19;;;16.48;50.71
62600;BME280;48671;48.922;2.346;2023-05-25T07:02:41;102241.81;;;16.57;50.90
62600;BME280;48671;48.922;2.346;2023-05-25T07:05:07;102227.91;;;16.55;50.66
62600;BME280;48671;48.922;2.346;2023-05-25T07:07:32;102226.53;;;16.67;49.97
62600;BME280;48671;48.922;2.346;2023-05-25T07:09:57;102230.63;;;16.75;48.88
62600;BME280;48671;48.922;2.346;2023-05-25T07:12:23;102219.38;;;16.70;49.29
62600;BME280;48671;48.922;2.346;2023-05-25T07:14:48;102224.31;;;16.79;49.28
62600;BME280;48671;48.922;2.346;2023-05-25T07:17:14;102239.00;;;16.85;49.25
62600;BME280;48671;48.922;2.346;2023-05-25T07:19:39;102231.72;;;16.92;49.23
62600;BME280;48671;48.922;2.346;2023-05-25T07:22:07;102233.25;;;16.97;49.39
62600;BME280;48671;48.922;2.346;2023-05-25T07:24:32;102229.56;;;17.01;49.24
62600;BME280;48671;48.922;2.346;2023-05-25T07:26:58;102237.84;;;17.13;48.89
62600;BME280;48671;48.922;2.346;2023-05-25T07:29:23;102241.59;;;17.27;48.98
62600;BME280;48671;48.922;2.346;2023-05-25T07:31:48;102239.44;;;17.37;48.50
62600;BME280;48671;48.922;2.346;2023-05-25T07:34:13;102227.06;;;17.39;47.92
62600;BME280;48671;48.922;2.346;2023-05-25T07:36:39;102233.56;;;17.51;48.03
62600;BME280;48671;48.922;2.346;2023-05-25T07:39:04;102231.44;;;17.59;47.81
62600;BME280;48671;48.922;2.346;2023-05-25T07:41:30;102237.75;;;17.75;48.03
62600;BME280;48671;48.922;2.346;2023-05-25T07:43:55;102226.91;;;17.83;46.83
62600;BME280;48671;48.922;2.346;2023-05-25T07:46:20;102236.03;;;17.95;47.43
62600;BME280;48671;48.922;2.346;2023-05-25T07:48:49;102228.69;;;18.01;46.71
62600;BME280;48671;48.922;2.346;2023-05-25T07:51:14;102242.94;;;18.16;45.92
62600;BME280;48671;48.922;2.346;2023-05-25T07:53:40;102236.75;;;18.17;44.89
62600;BME280;48671;48.922;2.346;2023-05-25T07:56:06;102235.75;;;18.20;45.71
62600;BME280;48671;48.922;2.346;2023-05-25T07:58:32;102237.25;;;18.25;44.65
62600;BME280;48671;48.922;2.346;2023-05-25T08:00:57;102236.41;;;18.25;45.04
62600;BME280;48671;48.922;2.346;2023-05-25T08:03:22;102241.53;;;18.28;44.76
62600;BME280;48671;48.922;2.346;2023-05-25T08:05:48;102239.75;;;18.29;44.08
62600;BME280;48671;48.922;2.346;2023-05-25T08:08:13;102242.72;;;18.40;44.44
62600;BME280;48671;48.922;2.346;2023-05-25T08:10:39;102234.75;;;18.41;43.36
62600;BME280;48671;48.922;2.346;2023-05-25T08:13:04;102225.84;;;18.44;43.58
62600;BME280;48671;48.922;2.346;2023-05-25T08:15:29;102237.81;;;18.51;44.30
62600;BME280;48671;48.922;2.346;2023-05-25T08:17:55;102233.88;;;18.60;43.71
62600;BME280;48671;48.922;2.346;2023-05-25T08:20:20;102243.41;;;18.62;42.88
62600;BME280;48671;48.922;2.346;2023-05-25T08:22:47;102238.00;;;18.65;42.67
62600;BME280;48671;48.922;2.346;2023-05-25T08:25:15;102251.75;;;18.72;42.71
62600;BME280;48671;48.922;2.346;2023-05-25T08:27:40;102248.13;;;18.75;42.39
62600;BME280;48671;48.922;2.346;2023-05-25T08:30:06;102236.44;;;18.80;42.36
62600;BME280;48671;48.922;2.346;2023-05-25T08:32:31;102242.47;;;18.82;40.62
62600;BME280;48671;48.922;2.346;2023-05-25T08:34:56;102234.66;;;18.81;41.05
62600;BME280;48671;48.922;2.346;2023-05-25T08:37:22;102217.75;;;18.85;41.90
62600;BME280;48671;48.922;2.346;2023-05-25T08:39:49;102216.03;;;19.01;41.27
62600;BME280;48671;48.922;2.346;2023-05-25T08:42:14;102215.59;;;19.10;40.18
62600;BME280;48671;48.922;2.346;2023-05-25T08:44:39;102209.63;;;19.07;38.79
62600;BME280;48671;48.922;2.346;2023-05-25T08:47:05;102227.06;;;19.27;40.28
62600;BME280;48671;48.922;2.346;2023-05-25T08:49:35;102225.88;;;19.32;39.54
62600;BME280;48671;48.922;2.346;2023-05-25T08:52:02;102229.69;;;19.44;39.97
62600;BME280;48671;48.922;2.346;2023-05-25T08:54:35;102228.25;;;19.54;40.14
62600;BME280;48671;48.922;2.346;2023-05-25T08:57:13;102225.31;;;19.60;39.11
62600;BME280;48671;48.922;2.346;2023-05-25T09:05:03;102237.16;;;19.86;38.89
62600;BME280;48671;48.922;2.346;2023-05-25T09:07:29;102230.00;;;20.04;38.48
62600;BME280;48671;48.922;2.346;2023-05-25T09:09:55;102232.59;;;20.06;38.38
62600;BME280;48671;48.922;2.346;2023-05-25T09:12:22;102228.66;;;20.13;39.12
62600;BME280;48671;48.922;2.346;2023-05-25T09:14:48;102227.06;;;20.26;39.89
62600;BME280;48671;48.922;2.346;2023-05-25T09:17:14;102235.66;;;20.46;37.78
62600;BME280;48671;48.922;2.346;2023-05-25T09:19:40;102223.75;;;20.54;37.01
62600;BME280;48671;48.922;2.346;2023-05-25T09:22:05;102222.81;;;20.55;37.10
62600;BME280;48671;48.922;2.346;2023-05-25T09:24:31;102234.00;;;20.61;37.71
62600;BME280;48671;48.922;2.346;2023-05-25T09:26:58;102222.56;;;20.60;37.15
62600;BME280;48671;48.922;2.346;2023-05-25T09:29:23;102216.66;;;20.71;38.05
62600;BME280;48671;48.922;2.346;2023-05-25T09:31:49;102216.50;;;20.88;37.66
62600;BME280;48671;48.922;2.346;2023-05-25T09:34:15;102221.16;;;20.99;36.98
62600;BME280;48671;48.922;2.346;2023-05-25T09:36:40;102230.38;;;21.08;36.60
62600;BME280;48671;48.922;2.346;2023-05-25T09:39:08;102222.91;;;21.14;36.09
62600;BME280;48671;48.922;2.346;2023-05-25T09:41:34;102232.72;;;21.12;35.18
62600;BME280;48671;48.922;2.346;2023-05-25T09:44:00;102222.84;;;21.16;34.84
62600;BME280;48671;48.922;2.346;2023-05-25T09:46:26;102220.09;;;21.17;33.84
62600;BME280;48671;48.922;2.346;2023-05-25T09:48:52;102220.44;;;21.11;34.95
62600;BME280;48671;48.922;2.346;2023-05-25T09:51:17;102211.66;;;21.11;34.80
62600;BME280;48671;48.922;2.346;2023-05-25T09:53:43;102213.09;;;21.16;33.81
62600;BME280;48671;48.922;2.346;2023-05-25T09:56:10;102217.16;;;21.22;32.14
62600;BME280;48671;48.922;2.346;2023-05-25T09:58:35;102214.63;;;21.20;33.04
62600;BME280;48671;48.922;2.346;2023-05-25T10:01:01;102221.44;;;21.24;33.36
62600;BME280;48671;48.922;2.346;2023-05-25T10:03:28;102215.44;;;21.37;33.57
62600;BME280;48671;48.922;2.346;2023-05-25T10:05:54;102207.78;;;21.46;34.36
62600;BME280;48671;48.922;2.346;2023-05-25T10:08:21;102201.81;;;21.57;33.50
62600;BME280;48671;48.922;2.346;2023-05-25T10:10:49;102214.13;;;21.72;33.56
62600;BME280;48671;48.922;2.346;2023-05-25T10:13:20;102203.22;;;21.77;33.56
62600;BME280;48671;48.922;2.346;2023-05-25T10:15:52;102216.69;;;21.88;33.93
62600;BME280;48671;48.922;2.346;2023-05-25T10:18:23;102213.63;;;21.80;33.91
62600;BME280;48671;48.922;2.346;2023-05-25T10:20:53;102219.41;;;22.01;35.22
62600;BME280;48671;48.922;2.346;2023-05-25T10:23:21;102220.31;;;22.29;34.41
62600;BME280;48671;48.922;2.346;2023-05-25T10:25:52;102217.09;;;22.38;32.59
62600;BME280;48671;48.922;2.346;2023-05-25T10:28:36;102221.22;;;22.42;33.77
62600;BME280;48671;48.922;2.346;2023-05-25T10:31:02;102211.84;;;22.51;32.03
62600;BME280;48671;48.922;2.346;2023-05-25T10:33:28;102216.03;;;22.67;32.88
62600;BME280;48671;48.922;2.346;2023-05-25T10:35:54;102217.47;;;22.86;32.21
62600;BME280;48671;48.922;2.346;2023-05-25T10:38:20;102214.97;;;22.97;33.01
62600;BME280;48671;48.922;2.346;2023-05-25T10:40:46;102223.34;;;23.04;30.03
62600;BME280;48671;48.922;2.346;2023-05-25T10:43:13;102227.00;;;23.16;31.89
62600;BME280;48671;48.922;2.346;2023-05-25T10:45:40;102222.81;;;23.11;31.02
62600;BME280;48671;48.922;2.346;2023-05-25T10:48:06;102219.88;;;23.03;31.79
62600;BME280;48671;48.922;2.346;2023-05-25T10:50:34;102219.00;;;23.03;32.12
62600;BME280;48671;48.922;2.346;2023-05-25T10:53:01;102222.63;;;23.14;31.41
62600;BME280;48671;48.922;2.346;2023-05-25T10:55:28;102223.94;;;23.22;32.15
62600;BME280;48671;48.922;2.346;2023-05-25T10:58:12;102220.19;;;23.37;31.66
62600;BME280;48671;48.922;2.346;2023-05-25T11:00:38;102218.19;;;23.53;31.01
62600;BME280;48671;48.922;2.346;2023-05-25T11:03:04;102215.53;;;23.53;31.36
62600;BME280;48671;48.922;2.346;2023-05-25T11:08:01;102213.81;;;23.65;31.04
62600;BME280;48671;48.922;2.346;2023-05-25T11:16:20;102224.44;;;24.03;31.03
62600;BME280;48671;48.922;2.346;2023-05-25T11:18:54;102206.31;;;24.09;30.81
62600;BME280;48671;48.922;2.346;2023-05-25T11:24:02;102204.03;;;24.28;30.38
62600;BME280;48671;48.922;2.346;2023-05-25T11:26:32;102203.44;;;24.48;31.30
62600;BME280;48671;48.922;2.346;2023-05-25T11:28:59;102201.84;;;24.70;30.90
62600;BME280;48671;48.922;2.346;2023-05-25T11:31:31;102202.53;;;24.96;30.33
62600;BME280;48671;48.922;2.346;2023-05-25T11:34:00;102200.44;;;25.12;30.46
62600;BME280;48671;48.922;2.346;2023-05-25T11:36:27;102204.44;;;25.29;29.57
62600;BME280;48671;48.922;2.346;2023-05-25T11:38:56;102200.56;;;25.22;30.09
62600;BME280;48671;48.922;2.346;2023-05-25T11:41:22;102202.84;;;25.27;29.03
62600;BME280;48671;48.922;2.346;2023-05-25T11:43:48;102203.69;;;25.27;29.30
62600;BME280;48671;48.922;2.346;2023-05-25T11:46:16;102200.78;;;25.19;28.78
62600;BME280;48671;48.922;2.346;2023-05-25T11:48:45;102197.28;;;25.18;29.46
62600;BME280;48671;48.922;2.346;2023-05-25T11:51:13;102190.06;;;25.08;28.20
62600;BME280;48671;48.922;2.346;2023-05-25T11:53:43;102193.09;;;25.03;28.52
62600;BME280;48671;48.922;2.346;2023-05-25T11:56:09;102179.91;;;25.02;29.48
62600;BME280;48671;48.922;2.346;2023-05-25T11:58:35;102185.13;;;25.03;29.43
62600;BME280;48671;48.922;2.346;2023-05-25T12:01:29;102174.88;;;25.21;29.47
62600;BME280;48671;48.922;2.346;2023-05-25T12:03:55;102176.00;;;25.41;29.62
62600;BME280;48671;48.922;2.346;2023-05-25T12:06:25;102182.06;;;25.54;29.28
62600;BME280;48671;48.922;2.346;2023-05-25T12:08:51;102175.97;;;25.63;28.99
62600;BME280;48671;48.922;2.346;2023-05-25T12:11:18;102181.06;;;25.78;29.16
62600;BME280;48671;48.922;2.346;2023-05-25T12:13:50;102185.72;;;25.87;29.10
62600;BME280;48671;48.922;2.346;2023-05-25T12:16:16;102171.75;;;25.95;28.71
62600;BME280;48671;48.922;2.346;2023-05-25T12:18:42;102187.34;;;26.10;27.97
62600;BME280;48671;48.922;2.346;2023-05-25T12:21:07;102187.22;;;26.12;28.17
62600;BME280;48671;48.922;2.346;2023-05-25T12:23:34;102190.47;;;26.27;28.35
62600;BME280;48671;48.922;2.346;2023-05-25T12:26:13;102174.66;;;26.35;28.23
62600;BME280;48671;48.922;2.346;2023-05-25T12:28:40;102180.38;;;26.30;27.97
62600;BME280;48671;48.922;2.346;2023-05-25T12:31:24;102197.56;;;26.37;27.59
62600;BME280;48671;48.922;2.346;2023-05-25T12:34:11;102179.84;;;26.48;26.57
62600;BME280;48671;48.922;2.346;2023-05-25T12:36:37;102180.06;;;26.56;27.34
62600;BME280;48671;48.922;2.346;2023-05-25T12:39:03;102191.09;;;26.63;27.91
62600;BME280;48671;48.922;2.346;2023-05-25T12:41:29;102178.94;;;26.58;26.96
62600;BME280;48671;48.922;2.346;2023-05-25T12:43:56;102184.91;;;26.62;26.14
62600;BME280;48671;48.922;2.346;2023-05-25T12:46:24;102181.25;;;26.63;25.54
62600;BME280;48671;48.922;2.346;2023-05-25T12:48:50;102181.84;;;26.67;27.37
62600;BME280;48671;48.922;2.346;2023-05-25T12:51:16;102171.34;;;26.75;27.40
62600;BME280;48671;48.922;2.346;2023-05-25T12:53:51;102184.72;;;26.96;26.95
62600;BME280;48671;48.922;2.346;2023-05-25T12:56:16;102162.78;;;26.92;26.77
62600;BME280;48671;48.922;2.346;2023-05-25T12:58:41;102170.13;;;27.00;26.86
62600;BME280;48671;48.922;2.346;2023-05-25T13:01:08;102171.28;;;27.07;26.62
62600;BME280;48671;48.922;2.346;2023-05-25T13:03:33;102160.72;;;27.05;26.28
62600;BME280;48671;48.922;2.346;2023-05-25T13:06:00;102157.53;;;27.12;26.01
62600;BME280;48671;48.922;2.346;2023-05-25T13:08:26;102167.91;;;27.26;26.33